ADDS METAR Data INFO
IDs: Format: Raw Decoded Include TAF

Data at: 0328 UTC 16 Dec 2017

KJYO 160315Z AUTO 21005KT 7SM OVC055 M05/M05 A3000 RMK AO2
KJYO 160255Z AUTO 20004KT 7SM OVC055 M04/M04 A3000 RMK AO2
KJYO 160235Z AUTO 00000KT 7SM OVC055 M04/M04 A3000 RMK AO2
KJYO 160215Z AUTO 23003KT 7SM OVC055 M04/M04 A3000 RMK AO2
KJYO 160155Z AUTO 23003KT 10SM OVC055 M04/M04 A2999 RMK AO2
KJYO 160135Z AUTO 24003KT 10SM OVC055 M05/M05 A2999 RMK AO2
KJYO 160115Z AUTO 22005KT 10SM BKN055 M05/M05 A2999 RMK AO2
KJYO 160055Z AUTO 00000KT 10SM SCT055 M05/M05 A2999 RMK AO2
KJYO 160035Z AUTO 25003KT 7SM CLR M05/M05 A2998 RMK AO2
KJYO 160015Z AUTO 24003KT 10SM SCT049 M04/M04 A2997 RMK AO2
KJYO 152355Z AUTO 22004KT 10SM SCT044 BKN049 M04/M04 A2997 RMK AO2
KJYO 152335Z AUTO 00000KT 10SM BKN047 M05/M05 A2997 RMK AO2
KJYO 152315Z AUTO 00000KT 10SM SCT047 M04/M04 A2996 RMK AO2
KJYO 152255Z AUTO 00000KT 10SM CLR M03/M03 A2995 RMK AO2
KJYO 152235Z AUTO 00000KT 10SM CLR M03/M03 A2995 RMK AO2
KJYO 152215Z AUTO 00000KT 10SM CLR M02/M03 A2994 RMK AO2
KJYO 152155Z AUTO 00000KT 10SM CLR M02/M03 A2993 RMK AO2
KJYO 152135Z AUTO 00000KT 10SM SCT060 M02/M03 A2993 RMK AO2
KJYO 152115Z AUTO 00000KT 10SM SCT047 BKN060 M02/M03 A2993 RMK AO2
KJYO 152055Z AUTO 00000KT 10SM BKN042 BKN050 OVC060 M01/M03 A2993 RMK AO2
KJYO 152035Z AUTO 00000KT 10SM OVC040 M02/M03 A2994 RMK AO2
KJYO 152015Z AUTO 00000KT 3SM -SN OVC038 M02/M03 A2994 RMK AO2
KJYO 151955Z AUTO 00000KT 7SM -SN OVC036 M02/M03 A2995 RMK AO2
KJYO 151935Z AUTO 00000KT 3SM -SN OVC036 M02/M03 A2994 RMK AO2
KJYO 151915Z AUTO 00000KT 5SM -SN OVC034 M01/M03 A2994 RMK AO2
KJYO 151855Z AUTO 00000KT 4SM -SN OVC034 M01/M03 A2994 RMK AO2
KJYO 151835Z AUTO 17004KT 10SM BKN034 OVC041 M01/M04 A2995 RMK AO2
KJYO 151815Z AUTO 00000KT 10SM BKN034 OVC043 M01/M05 A2996 RMK AO2
KJYO 151755Z AUTO 00000KT 7SM -SN OVC036 M01/M05 A2997 RMK AO2
KJYO 151735Z AUTO 00000KT 5SM -SN OVC036 M01/M06 A2998 RMK AO2
KJYO 151715Z AUTO 00000KT 7SM -SN OVC033 M01/M06 A3000 RMK AO2
KJYO 151655Z AUTO 04003KT 10SM OVC033 M01/M07 A3001 RMK AO2
KJYO 151635Z AUTO 00000KT 10SM OVC033 M01/M07 A3002 RMK AO2
KJYO 151615Z AUTO 00000KT 10SM OVC035 M01/M07 A3003 RMK AO2
KJYO 151555Z AUTO 00000KT 10SM OVC037 M01/M07 A3005 RMK AO2
KJYO 151535Z AUTO 00000KT 10SM OVC037 M01/M07 A3006 RMK AO2
KJYO 151515Z AUTO 00000KT 10SM BKN039 OVC050 M01/M07 A3007 RMK AO2
KJYO 151455Z AUTO 00000KT 10SM BKN039 OVC048 M01/M07 A3008 RMK AO2
KJYO 151435Z AUTO 00000KT 10SM OVC048 M01/M07 A3007 RMK AO2
KJYO 151415Z AUTO 00000KT 10SM OVC048 M01/M07 A3008 RMK AO2
KJYO 151355Z AUTO 00000KT 10SM OVC048 M01/M07 A3008 RMK AO2
KJYO 151335Z AUTO 00000KT 10SM OVC046 M01/M07 A3007 RMK AO2
KJYO 151315Z AUTO 00000KT 10SM OVC044 M01/M07 A3008 RMK AO2
KJYO 151255Z AUTO 11004KT 10SM OVC044 M02/M07 A3008 RMK AO2
KJYO 151235Z AUTO 00000KT 10SM OVC044 M02/M07 A3009 RMK AO2
KJYO 151215Z AUTO 00000KT 10SM OVC046 M02/M07 A3010 RMK AO2
KJYO 151155Z AUTO 11003KT 10SM OVC046 M02/M07 A3010 RMK AO2
KJYO 151135Z AUTO 00000KT 10SM OVC048 M02/M07 A3010 RMK AO2
KJYO 151115Z AUTO 00000KT 10SM OVC048 M02/M08 A3010 RMK AO2
KJYO 151055Z AUTO 00000KT 10SM OVC050 M03/M06 A3011 RMK AO2
KJYO 151035Z AUTO 00000KT 10SM OVC050 M03/M07 A3010 RMK AO2
KJYO 151015Z AUTO 00000KT 10SM OVC050 M03/M06 A3010 RMK AO2
KJYO 150955Z AUTO 00000KT 10SM OVC050 M04/M06 A3011 RMK AO2
KJYO 150935Z AUTO 00000KT 10SM OVC050 M05/M06 A3011 RMK AO2
KJYO 150915Z AUTO 00000KT 10SM SCT050 M05/M07 A3011 RMK AO2
KJYO 150855Z AUTO 00000KT 10SM CLR M05/M07 A3012 RMK AO2
KJYO 150835Z AUTO 00000KT 10SM CLR M04/M07 A3012 RMK AO2
KJYO 150815Z AUTO 00000KT 10SM SCT048 M03/M08 A3013 RMK AO2
KJYO 150755Z AUTO 00000KT 10SM CLR M03/M08 A3012 RMK AO2
KJYO 150735Z AUTO 00000KT 10SM CLR M03/M07 A3011 RMK AO2
KJYO 150715Z AUTO 00000KT 10SM CLR M02/M08 A3012 RMK AO2
KJYO 150655Z AUTO 00000KT 10SM CLR M02/M08 A3012 RMK AO2
KJYO 150635Z AUTO 00000KT 10SM CLR M02/M08 A3012 RMK AO2
KJYO 150615Z AUTO 00000KT 10SM CLR M02/M10 A3012 RMK AO2
KJYO 150555Z AUTO 00000KT 10SM CLR M01/M10 A3011 RMK AO2
KJYO 150535Z AUTO 00000KT 10SM CLR M01/M09 A3011 RMK AO2
KJYO 150515Z AUTO 02003KT 10SM CLR M01/M09 A3011 RMK AO2
KJYO 150455Z AUTO 04003KT 10SM CLR M01/M10 A3011 RMK AO2
KJYO 150435Z AUTO 02004KT 10SM CLR M01/M09 A3011 RMK AO2
KJYO 150415Z AUTO 03004KT 10SM CLR M01/M09 A3011 RMK AO2
KJYO 150355Z AUTO 01006KT 10SM CLR 00/M08 A3011 RMK AO2
KJYO 150335Z AUTO 04006KT 10SM CLR 00/M08 A3011 RMK AO2
KJYO 150315Z AUTO 01008KT 10SM CLR 00/M09 A3010 RMK AO2
KJYO 150255Z AUTO 03004KT 10SM CLR 00/M09 A3010 RMK AO2
KJYO 150235Z AUTO 01007KT 10SM CLR 00/M09 A3009 RMK AO2
KJYO 150215Z AUTO 02008KT 10SM CLR 00/M08 A3010 RMK AO2
KJYO 150155Z AUTO 02011G17KT 10SM CLR 00/M08 A3008 RMK AO2
KJYO 150135Z AUTO 01012G17KT 10SM CLR 00/M08 A3009 RMK AO2
KJYO 150115Z AUTO 01010KT 10SM CLR 00/M07 A3008 RMK AO2
KJYO 150055Z AUTO 36008G14KT 10SM CLR 00/M07 A3008 RMK AO2
KJYO 150035Z AUTO 01009KT 10SM CLR 00/M07 A3007 RMK AO2
KJYO 150015Z AUTO 01010G15KT 10SM CLR 00/M07 A3006 RMK AO2
KJYO 142355Z AUTO 36007KT 10SM CLR 00/M06 A3005 RMK AO2
KJYO 142335Z AUTO 36006KT 10SM CLR 01/M06 A3005 RMK AO2
KJYO 142315Z AUTO 03005KT 10SM CLR 01/M06 A3003 RMK AO2
KJYO 142255Z AUTO 33011KT 10SM CLR 01/M06 A3001 RMK AO2
KJYO 142235Z AUTO 34010KT 10SM CLR 01/M06 A3001 RMK AO2
KJYO 142215Z AUTO 34013KT 10SM CLR 01/M06 A3000 RMK AO2
KJYO 142155Z AUTO 34009G16KT 10SM CLR 01/M06 A2998 RMK AO2
KJYO 142135Z AUTO 36009G16KT 10SM CLR 02/M06 A2998 RMK AO2
KJYO 142115Z AUTO 35010G16KT 10SM CLR 02/M06 A2997 RMK AO2
KJYO 142055Z AUTO 33010G16KT 10SM CLR 02/M06 A2996 RMK AO2
KJYO 142035Z AUTO 34014G20KT 10SM CLR 03/M06 A2995 RMK AO2
KJYO 142015Z AUTO 34011G20KT 10SM CLR 03/M06 A2995 RMK AO2
KJYO 141955Z AUTO 32012G19KT 10SM CLR 03/M06 A2993 RMK AO2
KJYO 141935Z AUTO 33009G22KT 10SM CLR 03/M06 A2991 RMK AO2
KJYO 141915Z AUTO 34013KT 10SM SCT050 04/M06 A2991 RMK AO2
KJYO 141855Z AUTO 36011G17KT 10SM BKN050 04/M06 A2990 RMK AO2
KJYO 141835Z AUTO 35014G18KT 10SM BKN050 05/M06 A2990 RMK AO2
KJYO 141815Z AUTO 01009KT 10SM OVC048 04/M06 A2990 RMK AO2
KJYO 141755Z AUTO 36010KT 10SM OVC048 03/M06 A2989 RMK AO2
KJYO 141735Z AUTO 34014KT 10SM OVC050 03/M06 A2989 RMK AO2
KJYO 141715Z AUTO 35009G16KT 10SM OVC050 03/M06 A2990 RMK AO2
KJYO 141655Z AUTO 33011G18KT 10SM OVC048 02/M06 A2989 RMK AO2
KJYO 141635Z AUTO 35014G21KT 10SM OVC048 03/M06 A2989 RMK AO2
KJYO 141615Z AUTO 32016G21KT 10SM BKN046 OVC060 02/M05 A2989 RMK AO2
KJYO 141555Z AUTO 35014G19KT 10SM BKN041 OVC049 02/M05 A2987 RMK AO2
KJYO 141535Z AUTO 35021G29KT 10SM OVC042 03/M03 A2984 RMK AO2